createdAt,value
2023-06-28T00:00:44.763Z,77.61
2023-06-28T00:01:46.864Z,77.82
2023-06-28T00:02:44.611Z,78.12
2023-06-28T00:03:44.608Z,78.33
2023-06-28T00:04:44.515Z,78.42
2023-06-28T00:05:44.479Z,78.42
2023-06-28T00:06:44.476Z,78.26
2023-06-28T00:07:44.487Z,78.06
2023-06-28T00:08:44.460Z,78.06
2023-06-28T00:09:44.447Z,77.95
2023-06-28T00:10:44.568Z,78.06
2023-06-28T00:11:44.394Z,78.26
2023-06-28T00:12:44.418Z,78.26
2023-06-28T00:13:44.477Z,78.56
2023-06-28T00:14:44.394Z,78.87
2023-06-28T00:15:44.405Z,79.07
2023-06-28T00:16:44.350Z,79.31
2023-06-28T00:17:44.374Z,79.38
2023-06-28T00:18:44.352Z,79.07
2023-06-28T00:19:44.363Z,79.41
2023-06-28T00:20:44.521Z,79.38
2023-06-28T00:21:44.319Z,79.21
2023-06-28T00:22:44.293Z,79.41
2023-06-28T00:23:44.322Z,79.41
2023-06-28T00:24:44.306Z,79.61
2023-06-28T00:25:44.257Z,79.72
2023-06-28T00:26:44.240Z,79.82
2023-06-28T00:27:44.236Z,79.72
2023-06-28T00:28:44.235Z,79.72
2023-06-28T00:29:44.237Z,79.82
2023-06-28T00:30:44.485Z,79.72
2023-06-28T00:31:44.324Z,79.82
2023-06-28T00:32:44.232Z,79.82
2023-06-28T00:33:44.180Z,79.82
2023-06-28T00:34:44.170Z,79.85
2023-06-28T00:35:44.154Z,80.06
2023-06-28T00:36:44.115Z,79.96
2023-06-28T00:37:44.155Z,79.45
2023-06-28T00:38:44.166Z,78.94
2023-06-28T00:39:44.148Z,78.60
2023-06-28T00:40:44.335Z,78.44
2023-06-28T00:41:44.077Z,78.64
2023-06-28T00:42:44.118Z,78.64
2023-06-28T00:43:44.064Z,78.74
2023-06-28T00:44:44.047Z,78.33
2023-06-28T00:45:44.053Z,78.23
2023-06-28T00:46:44.048Z,79.65
2023-06-28T00:47:44.093Z,80.06
2023-06-28T00:48:44.024Z,80.36
2023-06-28T00:49:43.987Z,80.57
2023-06-28T00:50:44.186Z,80.26
2023-06-28T00:51:43.984Z,80.06
2023-06-28T00:52:43.977Z,79.96
2023-06-28T00:53:43.959Z,80.06
2023-06-28T00:54:43.966Z,80.16
2023-06-28T00:55:43.925Z,80.46
2023-06-28T00:56:43.962Z,80.46
2023-06-28T00:57:43.897Z,80.36
2023-06-28T00:58:43.874Z,80.36
2023-06-28T00:59:43.931Z,80.46
2023-06-28T01:00:44.024Z,80.80
2023-06-28T01:01:43.844Z,80.80
2023-06-28T01:02:43.876Z,81.01
2023-06-28T01:03:43.957Z,80.91
2023-06-28T01:04:43.810Z,81.01
2023-06-28T01:05:43.865Z,81.01
2023-06-28T01:06:43.793Z,81.41
2023-06-28T01:07:43.772Z,81.72
2023-06-28T01:08:43.772Z,81.41
2023-06-28T01:09:43.773Z,81.41
2023-06-28T01:10:43.958Z,81.62
2023-06-28T01:11:43.754Z,81.62
2023-06-28T01:12:43.752Z,81.52
2023-06-28T01:13:43.792Z,81.62
2023-06-28T01:14:43.689Z,81.72
2023-06-28T01:15:43.732Z,81.92
2023-06-28T01:16:43.654Z,81.96
2023-06-28T01:17:43.721Z,82.06
2023-06-28T01:18:43.663Z,82.37
2023-06-28T01:19:43.667Z,82.47
2023-06-28T01:20:43.911Z,82.67
2023-06-28T01:21:43.609Z,82.67
2023-06-28T01:22:43.610Z,82.67
2023-06-28T01:23:43.586Z,82.78
2023-06-28T01:24:43.616Z,82.87
2023-06-28T01:25:43.579Z,82.87
2023-06-28T01:26:43.594Z,82.98
2023-06-28T01:27:43.564Z,82.67
2023-06-28T01:28:43.542Z,82.67
2023-06-28T01:29:43.520Z,82.67
2023-06-28T01:30:43.720Z,82.47
2023-06-28T01:31:43.535Z,82.06
2023-06-28T01:32:43.588Z,81.76
2023-06-28T01:33:43.614Z,81.66
2023-06-28T01:34:43.519Z,81.76
2023-06-28T01:35:43.446Z,81.56
2023-06-28T01:36:43.484Z,81.76
2023-06-28T01:37:43.464Z,81.90
2023-06-28T01:38:43.426Z,81.90
2023-06-28T01:39:43.407Z,82.31
2023-06-28T01:40:43.699Z,82.40
2023-06-28T01:41:43.401Z,82.40
2023-06-28T01:42:43.374Z,82.71
2023-06-28T01:43:43.383Z,82.71
2023-06-28T01:44:43.378Z,82.61
2023-06-28T01:45:43.435Z,82.71
2023-06-28T01:46:43.356Z,82.92
2023-06-28T01:47:43.376Z,83.12
2023-06-28T01:48:43.313Z,83.01
2023-06-28T01:49:43.294Z,83.42
2023-06-28T01:50:43.548Z,83.62
2023-06-28T01:51:43.332Z,84.03
2023-06-28T01:52:43.286Z,83.73
2023-06-28T01:53:43.264Z,83.22
2023-06-28T01:54:43.240Z,82.85
2023-06-28T01:55:43.207Z,82.95
2023-06-28T01:56:43.283Z,83.36
2023-06-28T01:57:43.227Z,83.67
2023-06-28T01:58:43.199Z,83.67
2023-06-28T01:59:43.185Z,83.56
2023-06-28T02:00:43.350Z,83.76
2023-06-28T02:01:43.245Z,83.46
2023-06-28T02:02:43.268Z,83.56
2023-06-28T02:03:43.201Z,83.67
2023-06-28T02:04:43.176Z,83.83
2023-06-28T02:05:43.129Z,83.93
2023-06-28T02:06:43.087Z,84.03
2023-06-28T02:07:43.157Z,83.93
2023-06-28T02:08:43.095Z,84.13
2023-06-28T02:09:43.070Z,84.03
2023-06-28T02:10:43.297Z,84.13
2023-06-28T02:11:43.026Z,84.03
2023-06-28T02:12:43.050Z,83.83
2023-06-28T02:13:43.079Z,83.83
2023-06-28T02:14:43.020Z,83.32
2023-06-28T02:15:42.996Z,83.73
2023-06-28T02:16:43.036Z,83.83
2023-06-28T02:17:43.016Z,83.83
2023-06-28T02:18:42.970Z,83.83
2023-06-28T02:19:43.060Z,83.42
2023-06-28T02:20:43.197Z,83.32
2023-06-28T02:21:42.958Z,83.26
2023-06-28T02:22:42.919Z,83.26
2023-06-28T02:23:42.951Z,83.36
2023-06-28T02:24:42.912Z,83.46
2023-06-28T02:25:42.928Z,83.46
2023-06-28T02:26:42.888Z,83.26
2023-06-28T02:27:42.887Z,82.92
2023-06-28T02:28:42.901Z,82.75
2023-06-28T02:29:42.846Z,82.20
2023-06-28T02:30:43.021Z,82.14
2023-06-28T02:31:42.886Z,82.45
2023-06-28T02:32:42.855Z,82.65
2023-06-28T02:33:42.839Z,82.54
2023-06-28T02:34:42.789Z,82.54
2023-06-28T02:35:42.799Z,82.54
2023-06-28T02:36:42.752Z,82.85
2023-06-28T02:37:42.765Z,82.75
2023-06-28T02:38:42.826Z,83.06
2023-06-28T02:39:42.806Z,83.06
2023-06-28T02:40:43.029Z,82.92
2023-06-28T02:41:42.716Z,82.31
2023-06-28T02:42:42.728Z,81.70
2023-06-28T02:43:42.696Z,81.09
2023-06-28T02:44:42.719Z,80.51
2023-06-28T02:45:42.721Z,80.31
2023-06-28T02:46:42.675Z,80.41
2023-06-28T02:47:42.677Z,80.62
2023-06-28T02:48:42.645Z,80.92
2023-06-28T02:49:42.660Z,81.02
2023-06-28T02:50:42.860Z,81.23
2023-06-28T02:51:42.600Z,81.57
2023-06-28T02:52:42.586Z,81.77
2023-06-28T02:53:42.603Z,82.07
2023-06-28T02:54:42.631Z,82.28
2023-06-28T02:55:42.570Z,82.28
2023-06-28T02:56:42.582Z,82.38
2023-06-28T02:57:42.532Z,82.07
2023-06-28T02:58:42.552Z,81.98
2023-06-28T02:59:42.519Z,81.87
2023-06-28T03:00:42.910Z,81.67
2023-06-28T03:01:42.520Z,81.67
2023-06-28T03:02:42.570Z,81.77
2023-06-28T03:03:42.627Z,81.46
2023-06-28T03:04:42.518Z,81.16
2023-06-28T03:05:42.473Z,80.96
2023-06-28T03:06:42.425Z,80.76
2023-06-28T03:07:42.407Z,80.85
2023-06-28T03:08:42.434Z,80.96
2023-06-28T03:09:42.443Z,80.85
2023-06-28T03:10:42.727Z,80.96
2023-06-28T03:11:42.405Z,80.96
2023-06-28T03:12:42.344Z,80.92
2023-06-28T03:13:42.371Z,80.92
2023-06-28T03:14:42.326Z,80.92
2023-06-28T03:15:42.360Z,80.92
2023-06-28T03:16:42.334Z,80.92
2023-06-28T03:17:42.340Z,80.92
2023-06-28T03:18:42.282Z,80.92
2023-06-28T03:19:42.299Z,81.02
2023-06-28T03:20:42.464Z,81.23
2023-06-28T03:21:42.326Z,81.43
2023-06-28T03:22:42.245Z,81.53
2023-06-28T03:23:42.223Z,81.59
2023-06-28T03:24:42.225Z,81.70
2023-06-28T03:25:42.235Z,81.70
2023-06-28T03:26:42.200Z,81.79
2023-06-28T03:27:42.265Z,82.00
2023-06-28T03:28:42.180Z,81.70
2023-06-28T03:29:42.164Z,81.49
2023-06-28T03:30:42.412Z,81.29
2023-06-28T03:31:42.166Z,80.98
2023-06-28T03:32:42.174Z,80.88
2023-06-28T03:33:42.151Z,80.98
2023-06-28T03:34:42.159Z,80.88
2023-06-28T03:35:42.091Z,80.68
2023-06-28T03:36:58.202Z,80.58
2023-06-28T03:37:43.064Z,80.74
2023-06-28T03:38:42.045Z,80.64
2023-06-28T03:39:42.069Z,80.64
2023-06-28T03:40:42.292Z,80.44
2023-06-28T03:41:42.066Z,79.93
2023-06-28T03:42:42.035Z,79.72
2023-06-28T03:43:41.983Z,79.52
2023-06-28T03:44:41.995Z,79.12
2023-06-28T03:45:41.977Z,79.22
2023-06-28T03:46:42.090Z,79.02
2023-06-28T03:47:42.063Z,79.52
2023-06-28T03:48:41.955Z,80.74
2023-06-28T03:49:41.940Z,81.05
2023-06-28T03:50:42.199Z,81.25
2023-06-28T03:51:41.935Z,81.56
2023-06-28T03:52:41.949Z,81.86
2023-06-28T03:53:41.895Z,82.26
2023-06-28T03:54:41.919Z,82.37
2023-06-28T03:55:41.889Z,82.26
2023-06-28T03:56:41.853Z,82.26
2023-06-28T03:57:41.870Z,82.06
2023-06-28T03:58:41.870Z,82.17
2023-06-28T03:59:41.814Z,82.37
2023-06-28T04:00:42.010Z,82.37
2023-06-28T04:01:41.847Z,82.17
2023-06-28T04:02:42.114Z,82.26
2023-06-28T04:03:41.869Z,82.26
2023-06-28T04:04:41.741Z,82.06
2023-06-28T04:05:41.731Z,82.26
2023-06-28T04:06:41.714Z,82.06
2023-06-28T04:07:41.831Z,81.86
2023-06-28T04:08:41.721Z,81.86
2023-06-28T04:09:41.729Z,81.76
2023-06-28T04:10:41.867Z,81.86
2023-06-28T04:11:41.677Z,81.96
2023-06-28T04:12:41.724Z,81.86
2023-06-28T04:13:41.641Z,81.82
2023-06-28T04:14:41.660Z,81.82
2023-06-28T04:15:41.628Z,81.82
2023-06-28T04:16:41.631Z,81.92
2023-06-28T04:17:41.668Z,81.72
2023-06-28T04:18:41.598Z,81.62
2023-06-28T04:19:41.624Z,81.72
2023-06-28T04:20:41.865Z,81.52
2023-06-28T04:21:41.560Z,81.52
2023-06-28T04:22:41.578Z,81.52
2023-06-28T04:23:41.525Z,81.62
2023-06-28T04:24:41.540Z,81.58
2023-06-28T04:25:41.535Z,81.48
2023-06-28T04:26:41.529Z,81.38
2023-06-28T04:27:41.486Z,81.58
2023-06-28T04:28:41.541Z,81.48
2023-06-28T04:29:41.487Z,81.24
2023-06-28T04:30:41.716Z,80.83
2023-06-28T04:31:41.507Z,80.73
2023-06-28T04:32:41.490Z,80.63
2023-06-28T04:33:41.429Z,80.43
2023-06-28T04:34:41.464Z,80.83
2023-06-28T04:35:41.412Z,81.04
2023-06-28T04:36:41.378Z,80.93
2023-06-28T04:37:41.404Z,81.04
2023-06-28T04:38:41.420Z,80.93
2023-06-28T04:39:41.402Z,80.90
2023-06-28T04:40:41.633Z,80.79
2023-06-28T04:41:41.328Z,80.79
2023-06-28T04:42:41.354Z,80.90
2023-06-28T04:43:41.827Z,80.99
2023-06-28T04:44:41.391Z,80.90
2023-06-28T04:45:41.343Z,80.79
2023-06-28T04:46:41.284Z,80.69
2023-06-28T04:47:41.304Z,80.59
2023-06-28T04:48:41.263Z,80.59
2023-06-28T04:49:41.278Z,80.39
2023-06-28T04:50:41.568Z,80.15
2023-06-28T04:51:41.240Z,80.05
2023-06-28T04:52:41.262Z,79.94
2023-06-28T04:53:41.223Z,79.85
2023-06-28T04:54:41.196Z,79.85
2023-06-28T04:55:41.180Z,79.64
2023-06-28T04:56:41.174Z,79.24
2023-06-28T04:57:41.161Z,79.44
2023-06-28T04:58:41.197Z,79.64
2023-06-28T04:59:41.134Z,79.64
2023-06-28T05:00:41.314Z,79.54
2023-06-28T05:01:41.221Z,79.44
2023-06-28T05:02:41.180Z,79.34
2023-06-28T05:03:41.245Z,79.13
2023-06-28T05:04:41.094Z,79.24
2023-06-28T05:05:41.064Z,78.93
2023-06-28T05:06:41.073Z,79.00
2023-06-28T05:07:41.121Z,78.89
2023-06-28T05:08:41.086Z,78.89
2023-06-28T05:09:41.034Z,78.79
2023-06-28T05:10:41.302Z,78.69
2023-06-28T05:11:41.032Z,78.69
2023-06-28T05:12:40.999Z,78.69
2023-06-28T05:13:40.995Z,78.55
2023-06-28T05:14:41.033Z,78.15
2023-06-28T05:15:40.944Z,77.84
2023-06-28T05:16:40.946Z,77.64
2023-06-28T05:17:40.947Z,77.40
2023-06-28T05:18:40.949Z,77.20
2023-06-28T05:19:40.932Z,77.20
2023-06-28T05:20:41.089Z,77.20
2023-06-28T05:21:40.873Z,77.20
2023-06-28T05:22:40.881Z,77.20
2023-06-28T05:23:40.889Z,77.20
2023-06-28T05:24:40.904Z,77.26
2023-06-28T05:25:40.860Z,77.06
2023-06-28T05:26:40.853Z,76.86
2023-06-28T05:27:40.821Z,76.42
2023-06-28T05:28:40.808Z,75.71
2023-06-28T05:29:40.806Z,75.61
2023-06-28T05:30:41.308Z,74.80
2023-06-28T05:31:40.876Z,74.87
2023-06-28T05:32:40.874Z,74.66
2023-06-28T05:33:40.736Z,74.46
2023-06-28T05:34:40.786Z,74.37
2023-06-28T05:35:40.750Z,74.02
2023-06-28T05:36:40.730Z,73.93
2023-06-28T05:37:40.741Z,73.62
2023-06-28T05:38:40.725Z,73.38
2023-06-28T05:39:40.672Z,72.75
2023-06-28T05:41:40.673Z,70.86
2023-06-28T05:42:40.679Z,69.38
2023-06-28T05:43:40.620Z,67.68
2023-06-28T05:44:40.617Z,64.94
2023-06-28T05:45:40.654Z,61.51
2023-06-28T05:46:40.700Z,59.02
2023-06-28T05:47:40.698Z,57.34
2023-06-28T05:48:40.610Z,55.49
2023-06-28T05:49:40.620Z,53.61
2023-06-28T05:50:41.763Z,52.57
2023-06-28T05:51:41.548Z,51.12
2023-06-28T05:52:40.541Z,49.49
2023-06-28T05:53:40.530Z,48.74
2023-06-28T05:54:40.515Z,47.83
2023-06-28T05:55:40.574Z,46.59
2023-06-28T05:56:40.521Z,45.36
2023-06-28T05:57:40.489Z,45.04
2023-06-28T05:58:40.509Z,44.23
2023-06-28T05:59:40.459Z,43.71
2023-06-28T06:00:40.749Z,43.02
2023-06-28T06:01:40.481Z,43.10
2023-06-28T06:02:40.489Z,42.68
2023-06-28T06:03:40.594Z,41.38
2023-06-28T06:04:40.397Z,40.86
2023-06-28T06:05:40.393Z,40.64
2023-06-28T06:06:40.380Z,40.25
2023-06-28T06:07:40.427Z,40.25
2023-06-28T06:08:40.345Z,39.62
2023-06-28T06:09:40.357Z,39.32
2023-06-28T06:10:40.438Z,38.93
2023-06-28T06:11:40.377Z,39.12
2023-06-28T06:12:40.347Z,38.22
2023-06-28T06:13:40.304Z,39.46
2023-06-28T06:14:40.310Z,38.56
2023-06-28T06:15:40.274Z,39.40
2023-06-28T06:16:40.287Z,40.50
2023-06-28T06:17:40.284Z,41.83
2023-06-28T06:18:40.268Z,43.10
2023-06-28T06:19:40.214Z,43.89
2023-06-28T06:21:40.268Z,43.62
2023-06-28T06:22:40.209Z,44.01
2023-06-28T06:23:40.192Z,44.85
2023-06-28T06:24:40.183Z,45.15
2023-06-28T06:25:40.154Z,44.53
2023-06-28T06:26:40.208Z,46.08
2023-06-28T06:27:40.151Z,47.54
2023-06-28T06:28:40.130Z,48.68
2023-06-28T06:29:40.171Z,49.73
2023-06-28T06:30:43.197Z,49.63
2023-06-28T06:31:40.164Z,48.88
2023-06-28T06:32:40.142Z,49.10
2023-06-28T06:33:40.160Z,48.98
2023-06-28T06:34:40.116Z,49.18
2023-06-28T06:35:40.077Z,45.45
2023-06-28T06:36:40.056Z,44.63
2023-06-28T06:37:40.037Z,45.39
2023-06-28T06:38:40.037Z,46.35
2023-06-28T06:39:40.046Z,46.84
2023-06-28T06:40:40.175Z,47.13
2023-06-28T06:41:40.050Z,46.75
2023-06-28T06:42:39.977Z,46.41
2023-06-28T06:43:39.956Z,45.93
2023-06-28T06:44:39.942Z,47.07
2023-06-28T06:45:39.942Z,47.49
2023-06-28T06:46:39.944Z,47.79
2023-06-28T06:47:39.987Z,47.49
2023-06-28T06:48:39.927Z,47.99
2023-06-28T06:49:39.903Z,48.53
2023-06-28T06:50:40.164Z,48.83
2023-06-28T06:51:39.894Z,48.36
2023-06-28T06:52:39.916Z,45.67
2023-06-28T06:53:39.885Z,42.27
2023-06-28T06:54:39.846Z,40.19
2023-06-28T06:55:39.871Z,38.08
2023-06-28T06:56:39.834Z,37.87
2023-06-28T06:57:39.830Z,38.28
2023-06-28T06:58:39.809Z,38.28
2023-06-28T06:59:39.807Z,37.73
2023-06-28T07:00:40.086Z,36.61
2023-06-28T07:01:39.785Z,35.16
2023-06-28T07:02:39.788Z,35.84
2023-06-28T07:03:39.732Z,37.60
2023-06-28T07:04:39.789Z,37.62
2023-06-28T07:05:39.820Z,40.41
2023-06-28T07:06:39.709Z,42.58
2023-06-28T07:07:39.812Z,44.04
2023-06-28T07:08:39.713Z,45.18
2023-06-28T07:09:39.730Z,44.59
2023-06-28T07:10:39.673Z,41.22
2023-06-28T07:11:39.660Z,42.29
2023-06-28T07:12:39.664Z,43.30
2023-06-28T07:13:39.715Z,44.34
2023-06-28T07:14:39.649Z,45.06
2023-06-28T07:15:39.722Z,45.55
2023-06-28T07:16:39.616Z,44.42
2023-06-28T07:17:39.702Z,43.60
2023-06-28T07:18:39.768Z,43.16
2023-06-28T07:19:39.597Z,40.58
2023-06-28T07:20:39.615Z,39.65
2023-06-28T07:21:39.677Z,37.70
2023-06-28T07:22:39.542Z,38.76
2023-06-28T07:23:39.586Z,40.92
2023-06-28T07:24:39.531Z,42.23
2023-06-28T07:25:39.755Z,39.72
2023-06-28T07:26:39.488Z,38.10
2023-06-28T07:27:39.475Z,37.92
2023-06-28T07:28:39.481Z,39.50
2023-06-28T07:29:39.508Z,40.74
2023-06-28T07:30:39.443Z,42.17
2023-06-28T07:31:39.542Z,42.27
2023-06-28T07:32:39.501Z,41.14
2023-06-28T07:33:39.408Z,39.65
2023-06-28T07:34:39.433Z,38.23
2023-06-28T07:35:39.437Z,36.76
2023-06-28T07:36:39.421Z,35.41
2023-06-28T07:37:39.388Z,34.10
2023-06-28T07:38:39.416Z,33.67
2023-06-28T07:39:39.356Z,34.63
2023-06-28T07:40:39.358Z,36.09
2023-06-28T07:41:39.351Z,38.25
2023-06-28T07:42:39.326Z,41.04
2023-06-28T07:43:39.418Z,43.42
2023-06-28T07:44:39.288Z,45.57
2023-06-28T07:45:39.374Z,45.79
2023-06-28T07:46:39.303Z,44.40
2023-06-28T07:47:40.749Z,40.68
2023-06-28T07:48:39.254Z,39.03
2023-06-28T07:49:39.258Z,37.76
2023-06-28T07:50:39.925Z,38.57
2023-06-28T07:51:39.221Z,40.84
2023-06-28T07:52:39.571Z,42.45
2023-06-28T07:53:39.274Z,40.70
2023-06-28T07:54:39.209Z,38.61
2023-06-28T07:55:39.348Z,38.35
2023-06-28T07:56:39.212Z,39.91
2023-06-28T07:57:39.204Z,41.22
2023-06-28T07:58:39.146Z,39.77
2023-06-28T07:59:39.167Z,40.74
2023-06-28T08:00:39.131Z,40.94
2023-06-28T08:01:39.193Z,39.50
2023-06-28T08:02:39.165Z,37.76
2023-06-28T08:03:39.173Z,39.22
2023-06-28T08:04:40.035Z,40.64
2023-06-28T08:05:39.074Z,39.67
2023-06-28T08:06:39.095Z,39.06
2023-06-28T08:07:39.118Z,40.23
2023-06-28T08:08:39.054Z,41.69
2023-06-28T08:09:39.101Z,42.43
2023-06-28T08:10:39.063Z,43.13
2023-06-28T08:11:39.058Z,40.60
2023-06-28T08:12:39.016Z,37.80
2023-06-28T08:13:38.999Z,35.69
2023-06-28T08:14:38.997Z,36.73
2023-06-28T08:15:39.096Z,36.11
2023-06-28T08:16:38.964Z,35.68
2023-06-28T08:17:39.011Z,35.15
2023-06-28T08:18:38.930Z,34.11
2023-06-28T08:19:38.945Z,33.69
2023-06-28T08:20:41.271Z,32.35
2023-06-28T08:21:38.935Z,31.03
2023-06-28T08:22:38.914Z,30.65
2023-06-28T08:23:38.882Z,31.37
2023-06-28T08:24:38.898Z,31.67
2023-06-28T08:25:38.882Z,32.64
2023-06-28T08:26:40.810Z,35.73
2023-06-28T08:27:38.837Z,38.13
2023-06-28T08:28:50.449Z,38.51
2023-06-28T08:29:39.868Z,37.03
2023-06-28T08:30:38.850Z,35.36
2023-06-28T08:31:38.949Z,33.64
2023-06-28T08:32:38.872Z,32.53
2023-06-28T08:33:39.487Z,32.12
2023-06-28T08:34:41.800Z,31.81
2023-06-28T08:35:38.788Z,30.88
2023-06-28T08:36:38.770Z,31.61
2023-06-28T08:37:38.797Z,32.76
2023-06-28T08:38:38.738Z,34.59
2023-06-28T08:39:38.794Z,33.25
2023-06-28T08:40:38.742Z,33.23
2023-06-28T08:41:38.698Z,31.90
2023-06-28T08:42:38.692Z,32.64
2023-06-28T08:43:38.764Z,32.53
2023-06-28T08:44:38.681Z,32.67
2023-06-28T08:45:38.674Z,33.51
2023-06-28T08:46:38.697Z,34.03
2023-06-28T08:47:38.681Z,34.92
2023-06-28T08:48:38.734Z,33.28
2023-06-28T08:49:38.618Z,31.84
2023-06-28T08:50:38.646Z,30.40
2023-06-28T08:51:39.851Z,30.32
2023-06-28T08:52:38.631Z,31.97
2023-06-28T08:53:38.638Z,33.82
2023-06-28T08:54:38.580Z,34.86
2023-06-28T08:55:38.607Z,36.41
2023-06-28T08:56:48.014Z,37.95
2023-06-28T08:57:39.584Z,36.36
2023-06-28T08:58:38.665Z,33.89
2023-06-28T08:59:38.546Z,32.14
2023-06-28T09:00:38.734Z,30.99
2023-06-28T09:01:38.569Z,30.27
2023-06-28T09:02:38.652Z,30.53
2023-06-28T09:03:38.633Z,30.69
2023-06-28T09:04:38.497Z,29.85
2023-06-28T09:05:38.481Z,28.71
2023-06-28T09:06:38.503Z,27.67
2023-06-28T09:07:38.539Z,26.97
2023-06-28T09:08:38.478Z,26.48
2023-06-28T09:09:38.423Z,26.45
2023-06-28T09:10:38.430Z,25.75
2023-06-28T09:11:38.518Z,26.03
2023-06-28T09:12:38.400Z,25.63
2023-06-28T09:13:38.399Z,25.92
2023-06-28T09:14:38.386Z,26.37
2023-06-28T09:15:38.390Z,28.63
2023-06-28T09:16:38.380Z,31.90
2023-06-28T09:17:38.441Z,34.38
2023-06-28T09:18:38.332Z,36.01
2023-06-28T09:19:38.345Z,36.54
2023-06-28T09:20:38.374Z,35.99
2023-06-28T09:21:38.327Z,33.64
2023-06-28T09:22:38.340Z,30.91
2023-06-28T09:23:38.332Z,30.11
2023-06-28T09:24:38.276Z,29.58
2023-06-28T09:25:38.296Z,28.96
2023-06-28T09:26:38.344Z,28.65
2023-06-28T09:27:38.278Z,28.53
2023-06-28T09:28:39.605Z,28.19
2023-06-28T09:29:38.252Z,27.33
2023-06-28T09:30:38.208Z,27.42
2023-06-28T09:31:38.300Z,27.50
2023-06-28T09:32:38.279Z,26.98
2023-06-28T09:33:38.214Z,26.68
2023-06-28T09:34:38.278Z,28.02
2023-06-28T09:35:38.241Z,28.50
2023-06-28T09:36:38.218Z,28.19
2023-06-28T09:37:38.228Z,27.77
2023-06-28T09:38:38.179Z,27.36
2023-06-28T09:39:38.705Z,26.45
2023-06-28T09:40:38.197Z,25.76
2023-06-28T09:41:38.211Z,25.36
2023-06-28T09:42:38.151Z,25.46
2023-06-28T09:43:38.094Z,24.55
2023-06-28T09:44:38.133Z,25.89
2023-06-28T09:45:39.208Z,26.71
2023-06-28T09:46:38.149Z,27.95
2023-06-28T09:47:38.134Z,29.79
2023-06-28T09:48:38.050Z,30.80
2023-06-28T09:49:40.543Z,31.42
2023-06-28T09:50:38.045Z,32.57
2023-06-28T09:51:38.044Z,32.21
2023-06-28T09:52:38.052Z,30.24
2023-06-28T09:53:38.058Z,28.81
2023-06-28T09:54:38.041Z,28.49
2023-06-28T09:55:37.982Z,28.81
2023-06-28T09:56:37.979Z,28.61
2023-06-28T09:57:37.970Z,28.96
2023-06-28T09:58:37.966Z,29.20
2023-06-28T09:59:38.006Z,28.38
2023-06-28T10:00:37.933Z,26.99
2023-06-28T10:01:37.932Z,26.31
2023-06-28T10:02:38.073Z,26.78
2023-06-28T10:03:38.022Z,26.28
2023-06-28T10:04:37.979Z,25.98
2023-06-28T10:05:37.935Z,25.47
2023-06-28T10:06:37.896Z,25.08
2023-06-28T10:07:37.982Z,24.79
2023-06-28T10:08:37.854Z,26.81
2023-06-28T10:09:37.937Z,26.70
2023-06-28T10:10:37.864Z,27.20
2023-06-28T10:11:37.881Z,27.94
2023-06-28T10:12:37.829Z,29.79
2023-06-28T10:13:37.842Z,31.32
2023-06-28T10:14:37.852Z,31.76
2023-06-28T10:15:37.850Z,33.29
2023-06-28T10:16:37.790Z,33.39
2023-06-28T10:17:37.822Z,34.10
2023-06-28T10:18:37.806Z,33.44
2023-06-28T10:19:37.750Z,31.10
2023-06-28T10:20:37.807Z,29.87
2023-06-28T10:21:37.731Z,30.30
2023-06-28T10:22:37.730Z,30.41
2023-06-28T10:23:37.723Z,31.32
2023-06-28T10:24:37.728Z,32.16
2023-06-28T10:25:37.718Z,31.75
2023-06-28T10:26:37.763Z,32.07
2023-06-28T10:27:37.697Z,33.28
2023-06-28T10:28:37.693Z,33.20
2023-06-28T10:29:37.653Z,32.03
2023-06-28T10:30:37.711Z,30.38
2023-06-28T10:31:37.801Z,29.34
2023-06-28T10:32:37.704Z,28.74
2023-06-28T10:33:37.881Z,29.38
2023-06-28T10:34:37.766Z,30.93
2023-06-28T10:35:37.653Z,30.90
2023-06-28T10:36:37.583Z,29.57
2023-06-28T10:37:37.603Z,28.78
2023-06-28T10:38:37.624Z,30.19
2023-06-28T10:39:37.566Z,29.97
2023-06-28T10:40:37.542Z,28.74
2023-06-28T10:41:37.547Z,27.72
2023-06-28T10:42:37.537Z,27.94
2023-06-28T10:43:37.557Z,27.33
2023-06-28T10:44:37.575Z,27.03
2023-06-28T10:45:37.519Z,27.06
2023-06-28T10:46:37.564Z,27.75
2023-06-28T10:47:37.521Z,27.73
2023-06-28T10:48:37.478Z,27.01
2023-06-28T10:49:37.523Z,26.32
2023-06-28T10:50:37.488Z,26.09
2023-06-28T10:51:37.478Z,26.73
2023-06-28T10:52:37.469Z,27.87
2023-06-28T10:53:37.461Z,27.64
2023-06-28T10:54:37.402Z,28.26
2023-06-28T10:55:37.435Z,29.19
2023-06-28T10:56:37.414Z,29.90
2023-06-28T10:57:37.400Z,29.35
2023-06-28T10:58:37.381Z,27.94
2023-06-28T10:59:37.372Z,27.11
2023-06-28T11:00:37.453Z,27.20
2023-06-28T11:01:37.392Z,26.23
2023-06-28T11:02:37.602Z,26.75
2023-06-28T11:03:37.332Z,26.79
2023-06-28T11:04:37.331Z,24.33
2023-06-28T11:05:37.509Z,24.24
2023-06-28T11:06:38.358Z,24.52
2023-06-28T11:07:37.377Z,24.01
2023-06-28T11:08:37.297Z,23.83
2023-06-28T11:09:37.272Z,24.40
2023-06-28T11:10:37.256Z,24.19
2023-06-28T11:11:37.315Z,23.68
2023-06-28T11:12:38.549Z,24.00
2023-06-28T11:13:37.259Z,25.22
2023-06-28T11:14:37.244Z,26.35
2023-06-28T11:15:37.205Z,27.80
2023-06-28T11:16:37.270Z,29.51
2023-06-28T11:17:37.268Z,29.92
2023-06-28T11:18:37.215Z,28.78
2023-06-28T11:19:37.204Z,27.95
2023-06-28T11:20:37.243Z,26.72
2023-06-28T11:21:37.168Z,25.92
2023-06-28T11:22:37.179Z,26.01
2023-06-28T11:23:37.142Z,25.32
2023-06-28T11:24:37.604Z,24.61
2023-06-28T11:25:37.413Z,24.99
2023-06-28T11:26:37.405Z,24.21
2023-06-28T11:27:37.158Z,24.35
2023-06-28T11:28:37.142Z,24.74
2023-06-28T11:29:37.111Z,24.74
2023-06-28T11:30:37.081Z,25.54
2023-06-28T11:31:37.098Z,26.03
2023-06-28T11:32:37.140Z,25.52
2023-06-28T11:33:37.057Z,25.02
2023-06-28T11:34:37.082Z,25.23
2023-06-28T11:35:37.031Z,25.93
2023-06-28T11:36:37.030Z,26.56
2023-06-28T11:37:37.041Z,26.84
2023-06-28T11:38:37.026Z,26.33
2023-06-28T11:39:40.393Z,25.44
2023-06-28T11:40:37.045Z,26.26
2023-06-28T11:41:36.976Z,26.75
2023-06-28T11:42:36.975Z,26.23
2023-06-28T11:43:36.978Z,26.45
2023-06-28T11:44:37.023Z,27.77
2023-06-28T11:45:37.018Z,28.29
2023-06-28T11:46:36.935Z,28.79
2023-06-28T11:47:36.987Z,29.69
2023-06-28T11:48:36.907Z,29.43
2023-06-28T11:49:36.938Z,29.83
2023-06-28T11:50:36.951Z,30.06
2023-06-28T11:51:36.919Z,31.06
2023-06-28T11:52:36.881Z,31.59
2023-06-28T11:53:36.907Z,31.70
2023-06-28T11:54:36.852Z,32.53
2023-06-28T11:55:36.854Z,32.14
2023-06-28T11:56:36.882Z,32.55
2023-06-28T11:57:36.851Z,32.76
2023-06-28T11:58:36.836Z,32.65
2023-06-28T11:59:36.822Z,32.95
2023-06-28T12:00:36.795Z,33.73
2023-06-28T12:01:36.798Z,32.56
2023-06-28T12:02:36.886Z,33.07
2023-06-28T12:03:36.997Z,32.70
2023-06-28T12:04:36.900Z,32.88
2023-06-28T12:05:36.773Z,32.78
2023-06-28T12:06:36.743Z,32.78
2023-06-28T12:07:36.915Z,32.48
2023-06-28T12:08:36.719Z,33.59
2023-06-28T12:09:36.718Z,33.17
2023-06-28T12:10:36.742Z,32.88
2023-06-28T12:11:36.685Z,33.28
2023-06-28T12:12:36.734Z,33.37
2023-06-28T12:13:36.793Z,33.49
2023-06-28T12:14:36.664Z,34.08
2023-06-28T12:15:36.666Z,33.89
2023-06-28T12:16:36.619Z,34.28
2023-06-28T12:17:36.644Z,33.98
2023-06-28T12:18:36.662Z,34.69
2023-06-28T12:19:36.614Z,34.69
2023-06-28T12:20:36.596Z,34.40
2023-06-28T12:21:36.640Z,34.01
2023-06-28T12:22:36.604Z,34.20
2023-06-28T12:23:36.600Z,34.20
2023-06-28T12:24:36.548Z,33.90
2023-06-28T12:25:36.530Z,34.50
2023-06-28T12:26:36.527Z,34.30
2023-06-28T12:27:36.550Z,32.91
2023-06-28T12:28:36.515Z,34.00
2023-06-28T12:29:36.635Z,33.50
2023-06-28T12:30:36.499Z,33.90
2023-06-28T12:31:36.493Z,35.07
2023-06-28T12:32:36.562Z,34.68
2023-06-28T12:33:36.439Z,33.19
2023-06-28T12:34:36.449Z,33.00
2023-06-28T12:35:36.445Z,33.07
2023-06-28T12:36:36.412Z,32.18
2023-06-28T12:37:36.424Z,32.89
2023-06-28T12:38:36.434Z,33.29
2023-06-28T12:39:36.465Z,33.28
2023-06-28T12:40:36.703Z,32.98
2023-06-28T12:41:36.359Z,32.88
2023-06-28T12:42:36.347Z,32.18
2023-06-28T12:43:36.400Z,32.40
2023-06-28T12:44:36.323Z,33.19
2023-06-28T12:45:36.302Z,32.88
2023-06-28T12:46:36.299Z,32.88
2023-06-28T12:47:36.315Z,32.56
2023-06-28T12:48:36.311Z,31.77
2023-06-28T12:49:36.309Z,31.68
2023-06-28T12:50:36.302Z,32.96
2023-06-28T12:51:36.283Z,34.05
2023-06-28T12:52:36.266Z,32.75
2023-06-28T12:53:36.319Z,31.96
2023-06-28T12:54:36.231Z,31.48